TAF Flughafenprognosen

Nürnberg TAF, ausgegeben Di 07.07. 19:00

TAF EDDN 071700Z 0718/0818 30006KT CAVOK BECMG 0719/0721 10003KT BECMG 0806/0808 20005KT BECMG 0808/0810 26010KT FM081600 30004KT 9999 SCT012 BKN025
GültigkeitVonBisWind in Beaufort
(Knoten)
Wolken
(Meter über Grund)
Sichtweite
(Meter)
Wettererscheinung
Grundvorhersage Di 07.07. 20:00 Mi 08.07. 20:00 WNW 2 (6) Nicht signifikant >= 10000  
Übergang zu Di 07.07. 21:00 Di 07.07. 23:00 O 2 (3)      
Übergang zu Mi 08.07. 08:00 Mi 08.07. 10:00 SSW 2 (5)      
Übergang zu Mi 08.07. 10:00 Mi 08.07. 12:00 W 3 (10)      
Schnelle Änderung zu Mi 08.07. 18:00 Mi 08.07. 18:00 WNW 2 (4) Stark bewölkt (760)
Wolkig (370)
>= 10000  

 

Hof TAF, ausgegeben Di 07.07. 16:00

TAF EDQM 071400Z 0715/0724 26007KT 9999 FEW045 BECMG 0718/0720 VRB02KT
GültigkeitVonBisWind in Beaufort
(Knoten)
Wolken
(Meter über Grund)
Sichtweite
(Meter)
Wettererscheinung
Grundvorhersage Di 07.07. 17:00 Mi 08.07. 02:00 W 3 (7) Leicht bewölkt (1400) >= 10000  
Übergang zu Di 07.07. 20:00 Di 07.07. 22:00 Uml 1 (2)      

 

Erfurt-Bindersleben TAF, ausgegeben Di 07.07. 19:00

TAF EDDE 071700Z 0718/0818 26010KT CAVOK BECMG 0718/0721 24005KT PROB40 TEMPO 0803/0810 RA BECMG 0808/0811 24010KT
GültigkeitVonBisWind in Beaufort
(Knoten)
Wolken
(Meter über Grund)
Sichtweite
(Meter)
Wettererscheinung
Grundvorhersage Di 07.07. 20:00 Mi 08.07. 20:00 W 3 (10) Nicht signifikant >= 10000  
Übergang zu Di 07.07. 20:00 Di 07.07. 23:00 WSW 2 (5)      
Vorübergehend
(Wahrscheinlichkeit 40 %)
Mi 08.07. 05:00 Mi 08.07. 12:00       Regen
Übergang zu Mi 08.07. 10:00 Mi 08.07. 13:00 WSW 3 (10)      

 

Augsburg TAF, ausgegeben Di 07.07. 19:00

TAF EDMA 071700Z 0718/0803 34005KT CAVOK BECMG 0718/0720 VRB03KT
GültigkeitVonBisWind in Beaufort
(Knoten)
Wolken
(Meter über Grund)
Sichtweite
(Meter)
Wettererscheinung
Grundvorhersage Di 07.07. 20:00 Mi 08.07. 05:00 NNW 2 (5) Nicht signifikant >= 10000  
Übergang zu Di 07.07. 20:00 Di 07.07. 22:00 Uml 2 (3)      

 

Frankfurt TAF, ausgegeben Di 07.07. 19:00

TAF EDDF 071700Z 0718/0824 29006KT CAVOK BECMG 0802/0804 20005KT BECMG 0807/0809 27009KT OVC040 PROB30 TEMPO 0812/0818 RA BECMG 0815/0817 17004KT TEMPO 0818/0824 4000 RADZ
GültigkeitVonBisWind in Beaufort
(Knoten)
Wolken
(Meter über Grund)
Sichtweite
(Meter)
Wettererscheinung
Grundvorhersage Di 07.07. 20:00 Do 09.07. 02:00 WNW 2 (6) Nicht signifikant >= 10000  
Übergang zu Mi 08.07. 04:00 Mi 08.07. 06:00 SSW 2 (5)      
Übergang zu Mi 08.07. 09:00 Mi 08.07. 11:00 W 3 (9) Bedeckt (1200)    
Vorübergehend
(Wahrscheinlichkeit 30 %)
Mi 08.07. 14:00 Mi 08.07. 20:00       Regen
Übergang zu Mi 08.07. 17:00 Mi 08.07. 19:00 S 2 (4)      
Vorübergehend Mi 08.07. 20:00 Do 09.07. 02:00     4000 Regen/Nieselregen

 

Stuttgart TAF, ausgegeben Di 07.07. 19:00

TAF EDDS 071700Z 0718/0818 33006KT CAVOK BECMG 0720/0722 24004KT BECMG 0807/0809 26009KT BECMG 0815/0817 34008KT
GültigkeitVonBisWind in Beaufort
(Knoten)
Wolken
(Meter über Grund)
Sichtweite
(Meter)
Wettererscheinung
Grundvorhersage Di 07.07. 20:00 Mi 08.07. 20:00 NNW 2 (6) Nicht signifikant >= 10000  
Übergang zu Di 07.07. 22:00 Mi 08.07. 00:00 WSW 2 (4)      
Übergang zu Mi 08.07. 09:00 Mi 08.07. 11:00 W 3 (9)      
Übergang zu Mi 08.07. 17:00 Mi 08.07. 19:00 NNW 3 (8)      

 

München TAF, ausgegeben Di 07.07. 19:00

TAF EDDM 071700Z 0718/0824 VRB03KT CAVOK BECMG 0807/0809 27009KT BECMG 0818/0820 VRB03KT
GültigkeitVonBisWind in Beaufort
(Knoten)
Wolken
(Meter über Grund)
Sichtweite
(Meter)
Wettererscheinung
Grundvorhersage Di 07.07. 20:00 Do 09.07. 02:00 Uml 2 (3) Nicht signifikant >= 10000  
Übergang zu Mi 08.07. 09:00 Mi 08.07. 11:00 W 3 (9)      
Übergang zu Mi 08.07. 20:00 Mi 08.07. 22:00 Uml 2 (3)